Aegean Viii — SXKO — position and weather

sailwx.info

Track history (hours):
 
Tides and Currents Weather Stations Pressure Air Temp Water Temp Dewpoint Dewpoint Depression Visibility Wind Speed Wind Dir Waves Ship Positions

Aegean Viii

Last reported at 2014-Oct-02 09:33 UTC. Time now 2014-Oct-02 10:28 UTC.
Position N 38°02' E 023°32'.

Length 12 m; draft 5.2 m.

Type: Tanker. MMSI: 240732000.

Date/timePositionNaut miles runAvg speedWind from/ knotsBaromVisibWave heightAir tempDewpointWater temp
2014-Oct-02 09:33N 38°02' E 023°32'0 0.0
2014-Oct-02 08:33N 38°02' E 023°32'0 0.0
2014-Oct-01 11:28N 38°02' E 023°32'3 3.2
2014-Oct-01 10:33N 38°02' E 023°36'0 0.0
2014-Oct-01 09:30N 38°02' E 023°36'0 0.0
2014-Oct-01 08:31N 38°02' E 023°36'0 0.0
2014-Oct-01 07:31N 38°02' E 023°36'0 0.0
2014-Oct-01 06:32N 38°02' E 023°36'0 0.0
2014-Oct-01 05:28N 38°02' E 023°36'0 0.5
2014-Oct-01 04:33N 38°02' E 023°35'3 0.1
2014-Sep-30 09:33N 38°02' E 023°32'0 0.0
2014-Sep-29 07:28N 38°02' E 023°32'3 0.1
2014-Sep-27 13:33N 37°59' E 023°33'6 5.9
2014-Sep-27 12:28N 37°52' E 023°32'0 0.0
2014-Sep-27 11:31N 37°52' E 023°32'0 0.0
2014-Sep-27 10:28N 37°52' E 023°32'1 0.6
2014-Sep-27 09:31N 37°53' E 023°33'0 0.2
2014-Sep-27 08:28N 37°53' E 023°32'0 0.0
2014-Sep-27 07:31N 37°53' E 023°33'0 0.1
2014-Sep-27 06:27N 37°53' E 023°32'1 0.8
2014-Sep-27 05:26N 37°52' E 023°31'0 0.0
2014-Sep-27 04:33N 37°52' E 023°31'0 0.0
2014-Sep-27 03:33N 37°52' E 023°31'0 0.0
2014-Sep-27 02:32N 37°52' E 023°32'0 0.1
2014-Sep-27 01:33N 37°52' E 023°32'2 1.8
2014-Sep-27 00:33N 37°54' E 023°33'4 3.5
2014-Sep-26 23:32N 37°57' E 023°35'0 0.0
2014-Sep-26 22:26N 37°57' E 023°35'0 0.0
2014-Sep-26 21:33N 37°57' E 023°35'0 0.0
2014-Sep-26 20:26N 37°57' E 023°35'0 0.0
2014-Sep-26 19:32N 37°57' E 023°35'0 0.0
2014-Sep-26 18:33N 37°57' E 023°35'0 0.0
2014-Sep-26 17:32N 37°57' E 023°35'0 0.0
2014-Sep-26 16:31N 37°57' E 023°35'0 0.0
2014-Sep-26 15:33N 37°57' E 023°35'0 0.1
2014-Sep-26 14:28N 37°57' E 023°35'0 0.0
2014-Sep-26 13:31N 37°57' E 023°35'0 0.0
2014-Sep-26 12:32N 37°57' E 023°35'3 3.1
2014-Sep-26 11:33N 38°00' E 023°33'3 0.8
2014-Sep-26 08:28N 38°02' E 023°36'1 0.6
2014-Sep-26 07:33N 38°02' E 023°35'0 0.1
2014-Sep-26 04:32N 38°02' E 023°35'2 0.1
2014-Sep-25 13:03N 38°02' E 023°32'0 0.2
2014-Sep-25 12:33N 38°02' E 023°32'7 7.0
2014-Sep-25 11:33N 37°55' E 023°33'0 0.0
2014-Sep-25 10:31N 37°55' E 023°33'0 0.0
2014-Sep-25 09:33N 37°55' E 023°33'0 0.0
2014-Sep-25 08:31N 37°55' E 023°33'1 1.1
2014-Sep-25 07:30N 37°55' E 023°34'2 2.2
2014-Sep-25 06:32N 37°53' E 023°33'0 0.1
2014-Sep-25 05:30N 37°53' E 023°33'6 6.5
2014-Sep-25 04:33N 37°59' E 023°33'3 0.3
2014-Sep-24 16:34N 38°02' E 023°33'2 2.0
2014-Sep-24 15:33N 38°02' E 023°36'0 0.0
2014-Sep-24 14:32N 38°02' E 023°36'0 0.0
2014-Sep-24 13:32N 38°02' E 023°36'0 0.0
2014-Sep-24 12:26N 38°02' E 023°36'0 0.0
2014-Sep-24 11:29N 38°02' E 023°36'0 0.0
2014-Sep-24 10:31N 38°02' E 023°36'0 0.0
2014-Sep-24 09:33N 38°02' E 023°36'1 0.2
2014-Sep-24 05:08N 38°02' E 023°35'0 0.2
2014-Sep-24 04:29N 38°02' E 023°35'2 2.1
2014-Sep-24 03:31N 38°02' E 023°32'0 0.0
2014-Sep-23 13:21N 38°02' E 023°32'0 0.0
2014-Sep-23 12:29N 38°02' E 023°32'6 6.0
2014-Sep-23 11:33N 37°57' E 023°35'2 2.4
2014-Sep-23 10:33N 37°56' E 023°37'0 0.0
2014-Sep-23 09:32N 37°56' E 023°37'0 0.0
2014-Sep-23 08:34N 37°56' E 023°37'0 0.0
2014-Sep-23 07:33N 37°56' E 023°37'0 0.0
2014-Sep-23 06:26N 37°56' E 023°37'0 0.0
2014-Sep-23 05:33N 37°56' E 023°37'5 4.7
2014-Sep-23 04:33N 37°59' E 023°33'3 0.2
2014-Sep-22 12:33N 38°02' E 023°34'  
Track history (hours):
 
Tides and Currents Weather Stations Pressure Air Temp Water Temp Dewpoint Dewpoint Depression Visibility Wind Speed Wind Dir Waves Ship Positions

Aegean Viii

Last reported at 2014-Oct-02 09:33 UTC. Time now 2014-Oct-02 10:28 UTC.
Position N 38°02' E 023°32'.

Length 12 m; draft 5.2 m.

Type: Tanker. MMSI: 240732000.

Date/timePositionNaut miles runAvg speedWind from/ knotsBaromVisibWave heightAir tempDewpointWater temp
2014-Oct-02 09:33N 38°02' E 023°32'0 0.0
2014-Oct-02 08:33N 38°02' E 023°32'0 0.0
2014-Oct-01 11:28N 38°02' E 023°32'3 3.2
2014-Oct-01 10:33N 38°02' E 023°36'0 0.0
2014-Oct-01 09:30N 38°02' E 023°36'0 0.0
2014-Oct-01 08:31N 38°02' E 023°36'0 0.0
2014-Oct-01 07:31N 38°02' E 023°36'0 0.0
2014-Oct-01 06:32N 38°02' E 023°36'0 0.0
2014-Oct-01 05:28N 38°02' E 023°36'0 0.5
2014-Oct-01 04:33N 38°02' E 023°35'3 0.1
2014-Sep-30 09:33N 38°02' E 023°32'0 0.0
2014-Sep-29 07:28N 38°02' E 023°32'3 0.1
2014-Sep-27 13:33N 37°59' E 023°33'6 5.9
2014-Sep-27 12:28N 37°52' E 023°32'0 0.0
2014-Sep-27 11:31N 37°52' E 023°32'0 0.0
2014-Sep-27 10:28N 37°52' E 023°32'1 0.6
2014-Sep-27 09:31N 37°53' E 023°33'0 0.2
2014-Sep-27 08:28N 37°53' E 023°32'0 0.0
2014-Sep-27 07:31N 37°53' E 023°33'0 0.1
2014-Sep-27 06:27N 37°53' E 023°32'1 0.8
2014-Sep-27 05:26N 37°52' E 023°31'0 0.0
2014-Sep-27 04:33N 37°52' E 023°31'0 0.0
2014-Sep-27 03:33N 37°52' E 023°31'0 0.0
2014-Sep-27 02:32N 37°52' E 023°32'0 0.1
2014-Sep-27 01:33N 37°52' E 023°32'2 1.8
2014-Sep-27 00:33N 37°54' E 023°33'4 3.5
2014-Sep-26 23:32N 37°57' E 023°35'0 0.0
2014-Sep-26 22:26N 37°57' E 023°35'0 0.0
2014-Sep-26 21:33N 37°57' E 023°35'0 0.0
2014-Sep-26 20:26N 37°57' E 023°35'0 0.0
2014-Sep-26 19:32N 37°57' E 023°35'0 0.0
2014-Sep-26 18:33N 37°57' E 023°35'0 0.0
2014-Sep-26 17:32N 37°57' E 023°35'0 0.0
2014-Sep-26 16:31N 37°57' E 023°35'0 0.0
2014-Sep-26 15:33N 37°57' E 023°35'0 0.1
2014-Sep-26 14:28N 37°57' E 023°35'0 0.0
2014-Sep-26 13:31N 37°57' E 023°35'0 0.0
2014-Sep-26 12:32N 37°57' E 023°35'3 3.1
2014-Sep-26 11:33N 38°00' E 023°33'3 0.8
2014-Sep-26 08:28N 38°02' E 023°36'1 0.6
2014-Sep-26 07:33N 38°02' E 023°35'0 0.1
2014-Sep-26 04:32N 38°02' E 023°35'2 0.1
2014-Sep-25 13:03N 38°02' E 023°32'0 0.2
2014-Sep-25 12:33N 38°02' E 023°32'7 7.0
2014-Sep-25 11:33N 37°55' E 023°33'0 0.0
2014-Sep-25 10:31N 37°55' E 023°33'0 0.0
2014-Sep-25 09:33N 37°55' E 023°33'0 0.0
2014-Sep-25 08:31N 37°55' E 023°33'1 1.1
2014-Sep-25 07:30N 37°55' E 023°34'2 2.2
2014-Sep-25 06:32N 37°53' E 023°33'0 0.1
2014-Sep-25 05:30N 37°53' E 023°33'6 6.5
2014-Sep-25 04:33N 37°59' E 023°33'3 0.3
2014-Sep-24 16:34N 38°02' E 023°33'2 2.0
2014-Sep-24 15:33N 38°02' E 023°36'0 0.0
2014-Sep-24 14:32N 38°02' E 023°36'0 0.0
2014-Sep-24 13:32N 38°02' E 023°36'0 0.0
2014-Sep-24 12:26N 38°02' E 023°36'0 0.0
2014-Sep-24 11:29N 38°02' E 023°36'0 0.0
2014-Sep-24 10:31N 38°02' E 023°36'0 0.0
2014-Sep-24 09:33N 38°02' E 023°36'1 0.2
2014-Sep-24 05:08N 38°02' E 023°35'0 0.2
2014-Sep-24 04:29N 38°02' E 023°35'2 2.1
2014-Sep-24 03:31N 38°02' E 023°32'0 0.0
2014-Sep-23 13:21N 38°02' E 023°32'0 0.0
2014-Sep-23 12:29N 38°02' E 023°32'6 6.0
2014-Sep-23 11:33N 37°57' E 023°35'2 2.4
2014-Sep-23 10:33N 37°56' E 023°37'0 0.0
2014-Sep-23 09:32N 37°56' E 023°37'0 0.0
2014-Sep-23 08:34N 37°56' E 023°37'0 0.0
2014-Sep-23 07:33N 37°56' E 023°37'0 0.0
2014-Sep-23 06:26N 37°56' E 023°37'0 0.0
2014-Sep-23 05:33N 37°56' E 023°37'5 4.7
2014-Sep-23 04:33N 37°59' E 023°33'3 0.2
2014-Sep-22 12:33N 38°02' E 023°34'  

Dump ship's entire track history